Time;durP1;ratioP1;P1;durP2;ratioP2;P2;SDS_P1;SDS_P2;PMS_P1;PMS_P2;Temp;Humidity;BMP_temperature;BMP_pressure;BME280_temperature;BME280_humidity;BME280_pressure;Samples;Min_cycle;Max_cycle;Signal;HPM_P1;HPM_P2
2021/09/09 00:01:27;;;;;;;13.70;7.90;;;;;;;13.57;88.72;100809.63;5046303;28;20219;-72
2021/09/09 00:03:54;;;;;;;9.80;7.57;;;;;;;13.55;90.82;100811.44;5032188;28;20239;-72
2021/09/09 00:06:22;;;;;;;10.27;7.33;;;;;;;13.51;88.45;100815.06;5052947;28;20229;-72
2021/09/09 00:08:49;;;;;;;10.03;7.67;;;;;;;13.52;87.96;100803.69;5048609;28;20197;-72
2021/09/09 00:11:16;;;;;;;13.13;7.93;;;;;;;13.50;88.81;100808.13;5049352;28;20286;-71
2021/09/09 00:13:44;;;;;;;10.63;6.97;;;;;;;13.44;88.74;100806.59;5048431;28;20206;-72
2021/09/09 00:16:13;;;;;;;9.80;7.83;;;;;;;13.38;89.83;100805.00;5058794;28;20761;-72
2021/09/09 00:18:41;;;;;;;9.13;7.17;;;;;;;13.34;89.36;100798.19;5055711;28;20251;-72
2021/09/09 00:21:10;;;;;;;9.90;8.07;;;;;;;13.35;89.70;100801.66;5041403;28;20216;-71
2021/09/09 00:23:37;;;;;;;9.77;7.13;;;;;;;13.30;88.92;100803.53;5053613;28;20217;-72
2021/09/09 00:26:04;;;;;;;9.40;7.20;;;;;;;13.27;88.65;100794.03;5048247;28;20228;-72
2021/09/09 00:28:32;;;;;;;9.77;7.20;;;;;;;13.29;88.83;100791.38;5048053;28;20230;-72
2021/09/09 00:30:59;;;;;;;9.77;7.23;;;;;;;13.31;88.24;100790.44;5052716;28;20205;-72
2021/09/09 00:33:26;;;;;;;10.57;7.40;;;;;;;13.22;89.52;100791.56;5050696;28;20201;-72
2021/09/09 00:35:54;;;;;;;9.50;7.53;;;;;;;13.18;88.99;100799.59;5049640;28;20209;-71
2021/09/09 00:38:20;;;;;;;9.23;7.40;;;;;;;13.11;91.23;100798.94;5052866;28;20230;-71
2021/09/09 00:40:46;;;;;;;12.70;7.47;;;;;;;13.10;94.41;100792.00;5051548;28;20214;-72
2021/09/09 00:43:13;;;;;;;10.00;7.40;;;;;;;13.01;93.31;100792.31;5049135;28;20745;-71
2021/09/09 00:45:40;;;;;;;9.83;7.20;;;;;;;12.95;93.30;100789.91;5053642;28;20206;-71
2021/09/09 00:48:06;;;;;;;10.87;7.30;;;;;;;12.88;93.95;100787.47;5047868;28;20227;-72
2021/09/09 00:50:33;;;;;;;10.30;7.73;;;;;;;12.87;96.49;100790.16;5046851;28;20202;-71
2021/09/09 00:53:01;;;;;;;11.10;7.57;;;;;;;12.78;97.01;100780.00;5048303;28;20207;-71
2021/09/09 00:55:27;;;;;;;10.73;7.57;;;;;;;12.74;97.91;100784.47;5043877;28;20193;-71
2021/09/09 00:57:54;;;;;;;10.97;7.07;;;;;;;12.74;99.89;100778.41;5045467;28;20224;-72
2021/09/09 01:00:20;;;;;;;9.60;6.87;;;;;;;12.60;96.38;100781.44;5048387;28;20577;-72
2021/09/09 01:02:46;;;;;;;11.07;7.93;;;;;;;12.61;96.15;100778.78;5052504;28;20208;-72
2021/09/09 01:05:13;;;;;;;10.70;7.40;;;;;;;12.53;95.35;100770.31;5052604;28;20807;-72
2021/09/09 01:07:40;;;;;;;10.83;7.50;;;;;;;12.54;98.43;100771.16;5054734;28;20229;-71
2021/09/09 01:10:10;;;;;;;10.93;7.73;;;;;;;12.42;97.12;100773.28;5041887;28;20284;-72
2021/09/09 01:12:36;;;;;;;11.57;7.63;;;;;;;12.40;98.44;100775.09;5056662;28;20205;-72
2021/09/09 01:15:03;;;;;;;8.87;6.97;;;;;;;12.38;99.47;100776.03;5042589;28;20709;-71
2021/09/09 01:17:29;;;;;;;10.63;7.67;;;;;;;12.28;99.42;100775.47;5049048;28;20231;-72
2021/09/09 01:19:56;;;;;;;12.87;8.37;;;;;;;12.29;100.00;100772.81;5056386;28;20320;-72
2021/09/09 01:22:22;;;;;;;9.23;7.70;;;;;;;12.21;100.00;100769.56;5051001;28;20225;-73
2021/09/09 01:24:50;;;;;;;13.97;8.00;;;;;;;12.22;100.00;100771.25;5049114;28;20221;-72
2021/09/09 01:27:17;;;;;;;11.93;7.47;;;;;;;12.21;100.00;100772.19;5044593;28;20227;-72
2021/09/09 01:29:45;;;;;;;11.60;7.40;;;;;;;12.12;100.00;100781.16;5045996;28;20299;-72
2021/09/09 01:32:12;;;;;;;9.80;7.17;;;;;;;12.08;100.00;100779.56;5058892;28;20206;-72
2021/09/09 01:34:39;;;;;;;10.80;8.03;;;;;;;12.10;100.00;100787.31;5051137;28;20216;-72
2021/09/09 01:37:06;;;;;;;9.83;7.67;;;;;;;12.06;100.00;100775.25;5051502;28;20219;-72
2021/09/09 01:39:33;;;;;;;10.13;7.90;;;;;;;12.01;100.00;100778.00;5050060;28;20280;-72
2021/09/09 01:42:01;;;;;;;11.83;8.40;;;;;;;11.92;100.00;100780.88;5059778;28;20602;-71
2021/09/09 01:44:29;;;;;;;12.57;7.37;;;;;;;11.82;100.00;100780.28;5059039;28;20199;-72
2021/09/09 01:46:55;;;;;;;10.00;7.90;;;;;;;11.83;100.00;100778.50;5053348;28;20224;-72
2021/09/09 01:49:22;;;;;;;11.83;7.23;;;;;;;11.74;100.00;100775.25;5051921;28;20239;-72
2021/09/09 01:51:49;;;;;;;10.37;7.77;;;;;;;11.77;100.00;100771.72;5056604;28;20555;-72
2021/09/09 01:54:16;;;;;;;11.80;7.77;;;;;;;11.64;100.00;100771.19;5052201;28;20209;-71
2021/09/09 01:56:42;;;;;;;10.20;7.23;;;;;;;11.64;100.00;100768.56;5051189;28;20243;-72
2021/09/09 01:59:10;;;;;;;12.67;8.40;;;;;;;11.66;100.00;100769.41;5035566;28;20294;-72
2021/09/09 02:01:36;;;;;;;11.07;7.73;;;;;;;11.62;100.00;100773.00;5045532;28;20573;-72
2021/09/09 02:04:03;;;;;;;10.37;8.07;;;;;;;11.68;100.00;100765.00;5050242;28;20664;-71
2021/09/09 02:06:30;;;;;;;9.83;7.53;;;;;;;11.56;100.00;100773.19;5046195;28;20712;-72
2021/09/09 02:08:56;;;;;;;12.17;7.93;;;;;;;11.50;100.00;100768.13;5057389;28;20207;-71
2021/09/09 02:11:24;;;;;;;10.67;7.93;;;;;;;11.45;100.00;100770.00;5061136;28;20207;-71
2021/09/09 02:13:50;;;;;;;11.17;7.50;;;;;;;11.42;100.00;100767.50;5053728;28;20199;-71
2021/09/09 02:16:18;;;;;;;9.70;7.93;;;;;;;11.48;100.00;100767.31;5055567;28;20237;-72
2021/09/09 02:18:44;;;;;;;11.23;8.27;;;;;;;11.36;100.00;100771.09;5067342;28;20198;-72
2021/09/09 02:21:12;;;;;;;12.67;7.83;;;;;;;11.31;100.00;100767.75;5050537;28;20225;-72
2021/09/09 02:23:38;;;;;;;13.30;8.90;;;;;;;11.36;100.00;100773.72;5049671;28;20604;-72
2021/09/09 02:26:05;;;;;;;11.30;8.13;;;;;;;11.24;100.00;100771.44;5050485;28;20583;-71
2021/09/09 02:28:31;;;;;;;11.17;8.53;;;;;;;11.19;100.00;100761.13;5060330;28;20199;-71
2021/09/09 02:30:58;;;;;;;9.27;7.67;;;;;;;11.21;100.00;100764.56;5051337;28;20365;-71
2021/09/09 02:33:26;;;;;;;11.97;8.70;;;;;;;11.19;100.00;100766.34;5050879;28;20739;-71
2021/09/09 02:35:52;;;;;;;12.67;8.40;;;;;;;11.18;100.00;100765.47;5051666;28;20630;-72
2021/09/09 02:38:19;;;;;;;11.43;8.60;;;;;;;11.12;100.00;100763.03;5048303;28;20568;-71
2021/09/09 02:40:45;;;;;;;13.13;8.90;;;;;;;11.21;100.00;100761.94;5056241;28;20198;-71
2021/09/09 02:43:11;;;;;;;11.47;8.73;;;;;;;11.10;100.00;100751.78;5051876;28;20304;-72
2021/09/09 02:45:38;;;;;;;11.73;8.80;;;;;;;11.05;100.00;100750.19;5053734;28;20206;-72
2021/09/09 02:48:05;;;;;;;11.93;8.60;;;;;;;11.05;100.00;100748.44;5035134;28;20228;-72
2021/09/09 02:50:33;;;;;;;11.87;8.77;;;;;;;11.04;100.00;100754.53;5050437;28;20234;-71
2021/09/09 02:52:59;;;;;;;12.97;8.87;;;;;;;10.94;100.00;100746.13;5050500;28;20217;-72
2021/09/09 02:55:26;;;;;;;11.90;8.57;;;;;;;10.80;100.00;100746.47;5056131;28;20213;-72
2021/09/09 02:57:53;;;;;;;11.10;8.20;;;;;;;10.75;100.00;100745.72;5068018;28;20222;-72
2021/09/09 03:00:19;;;;;;;12.40;8.90;;;;;;;10.77;100.00;100749.13;5047967;28;20297;-72
2021/09/09 03:02:46;;;;;;;13.37;8.80;;;;;;;10.69;100.00;100745.84;5047763;28;20347;-71
2021/09/09 03:05:12;;;;;;;11.83;8.47;;;;;;;10.74;100.00;100750.97;5047393;28;20193;-71
2021/09/09 03:07:40;;;;;;;11.27;8.20;;;;;;;10.72;100.00;100747.53;5048480;28;20221;-71
2021/09/09 03:10:07;;;;;;;12.20;8.80;;;;;;;10.71;100.00;100743.22;5064777;28;20206;-72
2021/09/09 03:12:34;;;;;;;14.83;9.13;;;;;;;10.56;100.00;100744.47;5057413;28;20696;-71
2021/09/09 03:15:00;;;;;;;14.10;8.73;;;;;;;10.56;100.00;100740.09;5053280;28;20202;-72
2021/09/09 03:17:27;;;;;;;12.67;8.33;;;;;;;10.50;100.00;100739.38;5050384;28;20226;-72
2021/09/09 03:19:53;;;;;;;11.57;8.23;;;;;;;10.52;100.00;100732.41;5049906;28;20563;-71
2021/09/09 03:22:20;;;;;;;12.00;8.73;;;;;;;10.52;100.00;100728.03;5063706;28;20217;-71
2021/09/09 03:24:48;;;;;;;12.33;8.80;;;;;;;10.47;100.00;100729.88;5050616;28;20419;-71
2021/09/09 03:27:14;;;;;;;13.20;9.10;;;;;;;10.54;100.00;100722.78;5057990;28;20222;-71
2021/09/09 03:29:41;;;;;;;12.33;9.40;;;;;;;10.31;100.00;100723.31;5059603;28;20241;-71
2021/09/09 03:32:08;;;;;;;12.40;8.80;;;;;;;10.32;100.00;100720.66;5050513;28;20559;-72
2021/09/09 03:34:34;;;;;;;12.10;9.20;;;;;;;10.32;100.00;100719.81;5056063;28;20195;-72
2021/09/09 03:37:00;;;;;;;12.23;8.70;;;;;;;10.33;100.00;100719.78;5054659;28;20229;-71
2021/09/09 03:39:27;;;;;;;13.20;9.93;;;;;;;10.30;100.00;100719.81;5058130;28;20195;-71
2021/09/09 03:41:54;;;;;;;12.77;9.27;;;;;;;10.32;100.00;100715.47;5056253;28;20250;-71
2021/09/09 03:44:21;;;;;;;12.87;8.57;;;;;;;10.26;100.00;100715.59;5040435;28;20212;-72
2021/09/09 03:46:47;;;;;;;11.67;8.73;;;;;;;10.13;100.00;100724.56;5054529;28;20227;-72
2021/09/09 03:49:14;;;;;;;13.13;9.33;;;;;;;10.10;100.00;100728.09;5054699;28;20550;-72
2021/09/09 03:51:40;;;;;;;14.00;9.00;;;;;;;10.08;100.00;100713.38;5042123;28;20212;-71
2021/09/09 03:54:06;;;;;;;12.40;9.17;;;;;;;10.13;100.00;100712.41;5049878;28;20209;-72
2021/09/09 03:56:33;;;;;;;13.53;8.60;;;;;;;10.16;100.00;100719.28;5053027;28;20463;-71
2021/09/09 03:59:00;;;;;;;12.77;9.10;;;;;;;10.09;100.00;100712.50;5050172;28;20746;-71
2021/09/09 04:01:27;;;;;;;11.13;8.97;;;;;;;10.09;100.00;100718.56;5055153;28;20214;-71
2021/09/09 04:03:53;;;;;;;13.00;9.10;;;;;;;9.93;100.00;100712.00;5049882;28;20225;-72
2021/09/09 04:06:21;;;;;;;11.73;9.03;;;;;;;9.96;100.00;100712.78;5049587;28;20236;-72
2021/09/09 04:08:48;;;;;;;12.03;8.87;;;;;;;9.95;100.00;100705.84;5046846;28;20230;-71
2021/09/09 04:11:14;;;;;;;11.63;9.13;;;;;;;10.03;100.00;100711.75;5049589;28;20198;-71
2021/09/09 04:13:41;;;;;;;12.33;8.93;;;;;;;9.94;100.00;100708.50;5048713;28;20199;-72
2021/09/09 04:16:09;;;;;;;13.93;8.87;;;;;;;9.87;100.00;100707.78;5049294;28;20572;-71
2021/09/09 04:18:35;;;;;;;12.93;9.60;;;;;;;9.83;100.00;100700.91;5049661;28;20241;-72
2021/09/09 04:21:01;;;;;;;13.90;9.73;;;;;;;9.71;100.00;100708.97;5055344;28;20608;-71
2021/09/09 04:23:28;;;;;;;12.80;9.47;;;;;;;9.68;100.00;100709.06;5042325;28;20228;-71
2021/09/09 04:25:54;;;;;;;13.10;9.40;;;;;;;9.71;100.00;100699.44;5051918;28;20207;-71
2021/09/09 04:28:20;;;;;;;13.20;10.13;;;;;;;9.71;100.00;100708.97;5046250;28;20205;-71
2021/09/09 04:30:48;;;;;;;13.40;9.97;;;;;;;9.76;100.00;100701.94;5044316;28;20198;-71
2021/09/09 04:33:16;;;;;;;13.73;10.07;;;;;;;9.72;100.00;100708.94;5052784;28;20688;-71
2021/09/09 04:35:43;;;;;;;13.50;10.37;;;;;;;9.79;100.00;100701.88;5048587;28;20233;-71
2021/09/09 04:38:09;;;;;;;13.97;10.20;;;;;;;9.64;100.00;100706.53;5057262;28;21070;-71
2021/09/09 04:40:35;;;;;;;11.93;9.50;;;;;;;9.69;100.00;100708.16;5046856;28;20206;-72
2021/09/09 04:43:02;;;;;;;14.20;9.90;;;;;;;9.57;100.00;100697.13;5042522;28;20224;-71
2021/09/09 04:45:28;;;;;;;15.73;9.30;;;;;;;9.56;100.00;100707.56;5050727;28;20198;-71
2021/09/09 04:47:55;;;;;;;14.27;9.90;;;;;;;9.71;100.00;100706.38;5061146;28;20571;-72
2021/09/09 04:50:22;;;;;;;14.23;10.83;;;;;;;9.86;100.00;100693.88;5064078;28;20206;-71
2021/09/09 04:52:49;;;;;;;16.83;11.27;;;;;;;9.88;100.00;100691.25;5039701;28;20188;-72
2021/09/09 04:55:15;;;;;;;15.53;10.57;;;;;;;9.81;100.00;100694.88;5048659;28;20209;-72
2021/09/09 04:57:42;;;;;;;12.93;10.70;;;;;;;9.80;100.00;100691.44;5047852;28;20237;-72
2021/09/09 05:00:09;;;;;;;15.80;10.73;;;;;;;9.83;100.00;100687.88;5048798;28;20200;-72
2021/09/09 05:02:35;;;;;;;17.73;11.73;;;;;;;9.86;100.00;100693.88;5054117;28;20800;-72
2021/09/09 05:05:02;;;;;;;14.00;10.67;;;;;;;9.84;100.00;100687.84;5048137;28;20197;-71
2021/09/09 05:07:30;;;;;;;14.73;11.13;;;;;;;9.79;100.00;100679.28;5048094;28;20228;-72
2021/09/09 05:09:56;;;;;;;16.93;11.60;;;;;;;9.99;100.00;100677.97;5048208;28;20568;-72
2021/09/09 05:12:23;;;;;;;15.30;11.00;;;;;;;9.97;100.00;100682.38;5043914;28;20520;-71
2021/09/09 05:14:49;;;;;;;15.00;10.73;;;;;;;10.04;100.00;100671.81;5047303;28;20667;-72
2021/09/09 05:17:15;;;;;;;14.57;11.20;;;;;;;10.04;100.00;100670.91;5051634;28;20228;-71
2021/09/09 05:19:42;;;;;;;19.47;11.70;;;;;;;10.00;100.00;100670.13;5061042;28;20201;-72
2021/09/09 05:22:08;;;;;;;21.87;11.60;;;;;;;10.02;100.00;100664.91;5050415;28;20218;-72
2021/09/09 05:24:36;;;;;;;16.73;11.90;;;;;;;10.10;100.00;100665.59;5047686;28;20194;-72
2021/09/09 05:27:02;;;;;;;16.30;12.43;;;;;;;10.07;100.00;100663.03;5051987;28;20230;-72
2021/09/09 05:29:29;;;;;;;15.57;11.83;;;;;;;10.30;100.00;100654.66;5029277;28;20559;-72
2021/09/09 05:31:55;;;;;;;17.77;12.27;;;;;;;10.40;100.00;100658.78;5049287;28;20297;-72
2021/09/09 05:34:21;;;;;;;15.63;11.90;;;;;;;10.42;100.00;100654.41;5057669;28;20293;-71
2021/09/09 05:36:48;;;;;;;16.80;11.93;;;;;;;10.49;100.00;100654.25;5055995;28;20224;-71
2021/09/09 05:39:15;;;;;;;21.40;11.87;;;;;;;10.57;100.00;100655.78;5055477;28;20202;-71
2021/09/09 05:41:42;;;;;;;17.60;11.03;;;;;;;10.66;100.00;100656.41;5047423;28;20211;-72
2021/09/09 05:44:09;;;;;;;13.10;10.40;;;;;;;10.58;100.00;100656.63;5064102;28;20199;-71
2021/09/09 05:46:35;;;;;;;14.63;10.43;;;;;;;10.55;100.00;100660.19;5052420;28;20667;-71
2021/09/09 05:49:02;;;;;;;11.77;9.13;;;;;;;10.58;100.00;100662.69;5053581;28;20210;-72
2021/09/09 05:51:28;;;;;;;10.83;8.87;;;;;;;10.69;100.00;100659.78;5055323;28;20205;-71
2021/09/09 05:53:54;;;;;;;13.40;8.90;;;;;;;10.86;100.00;100672.41;5053737;28;20196;-71
2021/09/09 05:56:21;;;;;;;11.50;8.83;;;;;;;11.02;100.00;100659.81;5051502;28;20232;-72
2021/09/09 05:58:51;;;;;;;12.97;7.77;;;;;;;11.24;100.00;100673.13;5024486;28;20461;-72
2021/09/09 06:01:17;;;;;;;8.80;6.87;;;;;;;11.45;100.00;100676.00;5055063;28;20207;-72
2021/09/09 06:03:44;;;;;;;9.93;7.50;;;;;;;11.61;100.00;100663.34;5058708;28;20226;-71
2021/09/09 06:06:10;;;;;;;8.43;6.30;;;;;;;11.71;100.00;100670.88;5055520;28;20204;-72
2021/09/09 06:08:37;;;;;;;7.80;6.37;;;;;;;11.89;100.00;100671.22;5055533;28;20195;-72
2021/09/09 06:11:04;;;;;;;9.80;5.83;;;;;;;12.12;98.46;100670.53;5046590;28;20207;-72
2021/09/09 06:13:32;;;;;;;10.13;5.87;;;;;;;12.25;98.00;100671.84;5061387;28;20210;-72
2021/09/09 06:15:59;;;;;;;9.67;5.60;;;;;;;12.42;95.82;100667.84;5052709;28;20191;-72
2021/09/09 06:18:26;;;;;;;9.27;5.53;;;;;;;12.58;95.83;100669.03;5048811;28;20207;-72
2021/09/09 06:20:52;;;;;;;6.60;5.40;;;;;;;12.76;94.10;100669.31;5052488;28;20241;-72
2021/09/09 06:23:19;;;;;;;6.17;4.67;;;;;;;12.97;92.51;100684.25;5047470;28;20216;-71
2021/09/09 06:25:45;;;;;;;6.97;4.70;;;;;;;13.11;90.60;100680.31;5054263;28;20202;-72
2021/09/09 06:28:11;;;;;;;8.33;5.07;;;;;;;13.26;90.77;100677.13;5034768;28;20221;-72
2021/09/09 06:30:38;;;;;;;8.23;4.43;;;;;;;13.43;89.49;100682.63;5050735;28;20211;-72
2021/09/09 06:33:06;;;;;;;10.40;5.00;;;;;;;13.58;88.29;100685.59;5053940;28;20206;-72
2021/09/09 06:35:32;;;;;;;8.67;4.97;;;;;;;13.75;87.53;100684.94;5048491;28;20667;-72
2021/09/09 06:37:59;;;;;;;8.40;4.47;;;;;;;13.92;86.72;100676.44;5049604;28;20226;-72
2021/09/09 06:40:25;;;;;;;8.13;4.40;;;;;;;14.04;86.90;100675.13;5047013;28;20580;-72
2021/09/09 06:42:52;;;;;;;7.40;4.20;;;;;;;14.14;86.49;100677.31;5049455;28;20233;-72
2021/09/09 06:45:18;;;;;;;7.03;4.03;;;;;;;14.33;84.69;100677.38;5046960;28;20211;-72
2021/09/09 06:47:45;;;;;;;4.70;3.97;;;;;;;14.54;83.19;100687.91;5047318;28;20233;-72
2021/09/09 06:50:13;;;;;;;6.87;3.97;;;;;;;14.70;83.12;100683.75;5050232;28;20229;-71
2021/09/09 06:52:40;;;;;;;7.17;4.17;;;;;;;14.85;81.18;100684.03;5060364;28;20198;-72
2021/09/09 06:55:07;;;;;;;7.03;3.77;;;;;;;15.02;80.35;100691.16;5049467;28;20205;-72
2021/09/09 06:57:34;;;;;;;4.47;3.37;;;;;;;15.14;79.14;100686.25;5048656;28;20235;-72
2021/09/09 07:00:00;;;;;;;6.43;3.80;;;;;;;15.30;78.40;100681.16;5050417;28;20195;-72
2021/09/09 07:02:27;;;;;;;5.70;3.67;;;;;;;15.51;76.93;100696.88;5045371;28;20707;-72
2021/09/09 07:04:53;;;;;;;6.63;3.90;;;;;;;15.64;78.50;100690.13;5051887;28;20210;-72
2021/09/09 07:07:21;;;;;;;4.07;3.10;;;;;;;15.75;76.01;100692.28;5053394;28;20223;-71
2021/09/09 07:09:47;;;;;;;7.93;3.53;;;;;;;15.89;75.83;100699.53;5043057;28;20743;-72
2021/09/09 07:12:13;;;;;;;4.17;3.50;;;;;;;16.04;74.04;100690.94;5049065;28;20203;-72
2021/09/09 07:14:40;;;;;;;7.00;3.57;;;;;;;16.15;73.60;100686.94;5049340;28;20205;-72
2021/09/09 07:17:06;;;;;;;3.93;3.30;;;;;;;16.24;72.75;100691.75;5056029;28;20586;-72
2021/09/09 07:19:33;;;;;;;5.60;3.50;;;;;;;16.33;73.05;100687.81;5045757;28;20300;-72
2021/09/09 07:21:59;;;;;;;5.03;3.30;;;;;;;16.45;72.76;100689.84;5045081;28;20309;-72
2021/09/09 07:24:27;;;;;;;4.07;3.17;;;;;;;16.55;71.93;100688.47;5053278;28;20220;-72
2021/09/09 07:26:53;;;;;;;4.30;3.13;;;;;;;16.71;71.62;100688.53;5041244;28;20317;-72
2021/09/09 07:29:20;;;;;;;4.20;3.07;;;;;;;16.82;71.05;100686.19;5056855;28;20212;-72
2021/09/09 07:31:46;;;;;;;3.93;3.23;;;;;;;17.00;68.53;100689.69;5041173;28;20202;-72
2021/09/09 07:34:13;;;;;;;3.90;2.73;;;;;;;17.09;67.69;100695.41;5051547;28;20206;-72
2021/09/09 07:36:40;;;;;;;6.07;3.17;;;;;;;17.23;68.66;100695.53;5049501;28;20207;-72
2021/09/09 07:39:07;;;;;;;4.40;3.20;;;;;;;17.32;68.35;100699.47;5055339;28;20290;-72
2021/09/09 07:41:35;;;;;;;4.90;3.20;;;;;;;17.37;69.68;100694.81;5047237;28;20752;-72
2021/09/09 07:44:03;;;;;;;3.73;3.20;;;;;;;17.50;68.33;100693.22;5038143;28;20704;-72
2021/09/09 07:46:30;;;;;;;4.67;3.47;;;;;;;17.60;67.61;100690.94;5046680;28;20678;-72
2021/09/09 07:48:56;;;;;;;4.80;3.07;;;;;;;17.65;67.01;100685.41;5047340;28;20213;-72
2021/09/09 07:51:22;;;;;;;4.57;3.13;;;;;;;17.75;67.73;100686.63;5058876;28;20207;-72
2021/09/09 07:53:49;;;;;;;5.13;2.93;;;;;;;17.92;66.21;100691.84;5045426;28;20198;-72
2021/09/09 07:56:16;;;;;;;6.43;3.47;;;;;;;18.02;65.71;100691.31;5049411;28;20503;-72
2021/09/09 07:58:48;;;;;;;5.67;3.30;;;;;;;18.07;66.45;100686.63;5046655;28;20294;-72
2021/09/09 08:01:16;;;;;;;5.10;3.13;;;;;;;18.16;64.82;100683.47;5044146;28;20207;-72
2021/09/09 08:03:42;;;;;;;5.20;3.33;;;;;;;18.32;64.59;100678.16;5047612;28;20218;-72
2021/09/09 08:06:09;;;;;;;4.70;3.07;;;;;;;18.34;63.65;100684.19;5049268;28;20203;-72
2021/09/09 08:08:35;;;;;;;4.53;3.20;;;;;;;18.42;63.55;100691.69;5052229;28;20218;-72
2021/09/09 08:11:01;;;;;;;4.57;3.23;;;;;;;18.52;63.07;100691.06;5044625;28;20206;-72
2021/09/09 08:13:28;;;;;;;3.30;2.60;;;;;;;18.58;63.67;100681.91;5045609;28;20287;-72
2021/09/09 08:15:58;;;;;;;5.03;3.23;;;;;;;18.68;63.39;100684.84;5050110;28;20704;-72
2021/09/09 08:18:24;;;;;;;5.70;3.50;;;;;;;18.75;63.05;100691.50;5045803;28;20203;-72
2021/09/09 08:20:51;;;;;;;5.13;3.27;;;;;;;18.90;63.32;100687.13;5047332;28;20289;-72
2021/09/09 08:23:18;;;;;;;5.20;2.97;;;;;;;19.03;63.51;100690.72;5046859;28;20250;-72
2021/09/09 08:25:44;;;;;;;4.70;3.13;;;;;;;19.13;61.62;100700.72;5048706;28;20202;-72
2021/09/09 08:28:11;;;;;;;4.80;3.20;;;;;;;19.20;63.48;100686.19;5051999;28;20223;-72
2021/09/09 08:30:37;;;;;;;4.13;3.23;;;;;;;19.28;61.38;100689.22;5054118;28;20211;-72
2021/09/09 08:33:05;;;;;;;8.47;3.17;;;;;;;19.45;62.13;100683.75;5045769;28;20199;-72
2021/09/09 08:35:31;;;;;;;4.70;3.00;;;;;;;19.62;62.17;100676.53;5042875;28;20212;-72
2021/09/09 08:37:58;;;;;;;4.80;3.00;;;;;;;19.82;59.83;100684.09;5040388;28;20734;-72
2021/09/09 08:40:24;;;;;;;4.40;3.20;;;;;;;19.86;58.67;100690.03;5023532;28;20207;-72
2021/09/09 08:42:52;;;;;;;6.60;3.33;;;;;;;19.87;60.50;100681.13;5048147;28;20218;-72
2021/09/09 08:45:19;;;;;;;2.87;2.47;;;;;;;19.95;60.45;100678.03;5042495;28;20200;-72
2021/09/09 08:47:48;;;;;;;4.77;3.27;;;;;;;20.02;59.90;100680.16;5044503;28;20701;-72
2021/09/09 08:50:16;;;;;;;6.53;3.80;;;;;;;20.00;60.47;100676.75;5046318;28;20209;-72
2021/09/09 08:52:43;;;;;;;6.13;3.10;;;;;;;20.10;60.11;100676.16;5046106;28;20194;-72
2021/09/09 08:55:10;;;;;;;5.93;3.23;;;;;;;20.21;59.79;100669.22;5031972;28;20751;-72
2021/09/09 08:57:37;;;;;;;4.90;3.20;;;;;;;20.36;58.21;100679.75;5042749;28;20219;-72
2021/09/09 09:00:05;;;;;;;4.87;3.10;;;;;;;20.35;59.17;100676.25;5037915;28;20210;-72
2021/09/09 09:02:32;;;;;;;4.80;3.33;;;;;;;20.41;58.26;100678.47;5044441;28;20209;-72
2021/09/09 09:05:03;;;;;;;5.40;3.10;;;;;;;20.54;58.39;100675.84;5033552;28;20227;-72
2021/09/09 09:07:33;;;;;;;3.87;3.20;;;;;;;20.58;57.59;100676.53;5038271;28;20230;-72
2021/09/09 09:10:00;;;;;;;7.53;3.27;;;;;;;20.59;58.04;100675.56;5058022;28;20223;-72
2021/09/09 09:12:38;;;;;;;4.53;3.07;;;;;;;20.71;58.61;100671.25;5048184;28;20206;-72
2021/09/09 09:15:16;;;;;;;6.40;3.30;;;;;;;20.86;58.08;100664.06;5043512;28;20220;-72
2021/09/09 09:18:01;;;;;;;4.50;3.43;;;;;;;20.95;57.55;100666.94;5043115;28;20300;-72
2021/09/09 09:20:39;;;;;;;4.33;3.17;;;;;;;21.10;58.26;100666.81;5046985;28;20207;-72
2021/09/09 09:23:16;;;;;;;3.47;2.90;;;;;;;21.26;56.19;100664.78;5046965;28;20237;-72
2021/09/09 09:25:44;;;;;;;4.00;3.33;;;;;;;21.37;55.90;100675.50;5042844;28;20749;-72
2021/09/09 09:28:12;;;;;;;4.53;3.33;;;;;;;21.37;57.41;100662.25;5047309;28;20227;-72
2021/09/09 09:30:38;;;;;;;5.17;3.23;;;;;;;21.34;55.72;100670.41;5050424;28;20198;-72
2021/09/09 09:33:04;;;;;;;3.83;3.30;;;;;;;21.43;55.65;100663.59;5055150;28;20229;-72
2021/09/09 09:35:31;;;;;;;8.57;3.37;;;;;;;21.60;55.76;100664.22;5056031;28;20207;-72
2021/09/09 09:38:01;;;;;;;4.93;3.60;;;;;;;21.64;54.92;100658.59;5049340;28;20420;-72
2021/09/09 09:40:31;;;;;;;3.87;3.30;;;;;;;21.82;55.09;100655.56;5048492;28;20199;-72
2021/09/09 09:42:59;;;;;;;3.90;2.70;;;;;;;21.88;53.73;100665.72;5046910;28;20585;-72
2021/09/09 09:45:28;;;;;;;4.53;3.30;;;;;;;21.84;54.43;100662.44;5050554;28;20256;-72
2021/09/09 09:47:55;;;;;;;4.07;3.40;;;;;;;21.84;55.84;100662.44;5041934;28;20231;-72
2021/09/09 09:50:23;;;;;;;5.40;2.93;;;;;;;21.97;53.80;100665.06;5046227;28;20694;-72
2021/09/09 09:52:50;;;;;;;5.23;3.30;;;;;;;22.07;53.75;100666.06;5055128;28;20202;-72
2021/09/09 09:55:17;;;;;;;5.23;2.93;;;;;;;22.20;52.83;100666.00;5045783;28;20215;-72
2021/09/09 09:57:55;;;;;;;3.60;2.80;;;;;;;22.29;53.65;100659.19;5045431;28;20708;-72
2021/09/09 10:00:23;;;;;;;4.47;3.13;;;;;;;22.22;54.44;100657.94;5045124;28;20235;-73
2021/09/09 10:02:51;;;;;;;4.77;2.90;;;;;;;22.28;53.31;100660.16;5046938;28;20199;-72
2021/09/09 10:05:18;;;;;;;6.27;3.27;;;;;;;22.29;51.27;100665.34;5043377;28;20696;-72
2021/09/09 10:07:44;;;;;;;4.50;3.10;;;;;;;22.26;52.80;100660.22;5047384;28;20231;-72
2021/09/09 10:10:12;;;;;;;4.73;3.30;;;;;;;22.29;51.50;100659.19;5048740;28;20265;-72
2021/09/09 10:12:38;;;;;;;4.33;3.23;;;;;;;22.41;53.75;100654.75;5042886;28;20688;-72
2021/09/09 10:15:07;;;;;;;6.57;3.30;;;;;;;22.64;50.95;100653.03;5047722;28;20199;-72
2021/09/09 10:17:34;;;;;;;6.73;3.13;;;;;;;22.74;51.41;100659.31;5052670;28;20241;-72
2021/09/09 10:20:29;;;;;;;5.73;3.07;;;;;;;22.76;52.20;100651.22;5045856;28;20296;-72
2021/09/09 10:23:03;;;;;;;4.00;3.20;;;;;;;23.01;50.25;100656.34;5043543;28;20223;-72
2021/09/09 10:25:48;;;;;;;6.50;3.37;;;;;;;22.96;50.30;100653.19;5047817;28;20673;-72
2021/09/09 10:28:45;;;;;;;3.70;3.30;;;;;;;22.93;50.88;100648.09;5027931;28;20223;-73
2021/09/09 10:31:14;;;;;;;4.73;3.33;;;;;;;22.99;49.81;100649.44;5039621;28;20210;-74
2021/09/09 10:33:42;;;;;;;4.22;2.90;;;;;;;23.17;50.56;100640.06;5026669;28;20518;-73
2021/09/09 10:36:36;;;;;;;3.73;3.33;;;;;;;23.14;52.01;100644.78;5043597;28;20294;-73
2021/09/09 10:39:03;;;;;;;6.47;3.20;;;;;;;23.11;51.38;100645.00;5043876;28;20203;-73
2021/09/09 10:41:30;;;;;;;4.50;3.25;;;;;;;23.15;49.77;100649.97;5045507;28;20192;-73
2021/09/09 10:43:58;;;;;;;6.50;3.15;;;;;;;23.18;50.42;100644.44;5041930;28;20718;-73
2021/09/09 10:46:31;;;;;;;4.23;2.90;;;;;;;23.41;49.10;100645.25;5046257;28;20234;-73
2021/09/09 10:49:16;;;;;;;4.07;3.38;;;;;;;23.54;48.28;100639.78;5044492;28;20292;-73
2021/09/09 10:52:06;;;;;;;6.85;3.10;;;;;;;23.62;48.56;100631.16;5046246;28;20207;-73
2021/09/09 10:54:34;;;;;;;4.97;2.78;;;;;;;23.66;47.91;100631.75;5045866;28;20207;-73
2021/09/09 10:57:13;;;;;;;5.93;3.35;;;;;;;23.62;48.42;100626.72;5046647;28;20227;-73
2021/09/09 10:59:47;;;;;;;3.45;3.10;;;;;;;23.65;47.98;100632.75;5045343;28;20187;-73
2021/09/09 11:02:15;;;;;;;4.80;3.20;;;;;;;23.80;47.14;100629.72;5036258;28;20206;-73
2021/09/09 11:04:42;;;;;;;4.80;3.13;;;;;;;23.90;46.68;100628.94;5045346;28;20900;-73
2021/09/09 11:07:20;;;;;;;4.28;3.17;;;;;;;23.86;49.18;100617.72;5043994;28;20315;-73
2021/09/09 11:09:47;;;;;;;6.10;3.10;;;;;;;23.86;48.62;100624.88;5045410;28;20630;-73
2021/09/09 11:12:14;;;;;;;7.18;3.40;;;;;;;23.84;47.42;100629.47;5039434;28;20209;-73
2021/09/09 11:14:40;;;;;;;3.85;3.25;;;;;;;23.91;48.82;100625.34;5053411;28;20223;-73
2021/09/09 11:17:17;;;;;;;4.40;3.42;;;;;;;24.00;47.85;100627.22;5047307;28;20318;-73
2021/09/09 11:19:44;;;;;;;4.40;3.58;;;;;;;24.08;48.10;100623.91;5047611;28;20212;-73